< Typhoon 195522 1955 Season Typhoon 195524 >
Typhoon 195523 (MARGE)
General InformationTrack Information on Google Maps || Disaster Info.ResourceGoogle EarthGE AnimationAtom FeedGeoJSON
Detalied Best Track (Time Zone = UTC)
Year Month Day Hour Lat. Long. Pressure (hPa) Wind (kt) Class Image Chart
1955 9 27 12 13.1 144.4 1004 0 2 -- Chart
1955 9 27 18 13.6 143.5 1004 0 9 -- Chart
1955 9 28 00 14.0 142.8 1004 0 9 -- Chart
1955 9 28 06 14.3 142.0 1002 0 9 -- Chart
1955 9 28 12 14.7 141.3 1000 0 9 -- Chart
1955 9 28 18 15.0 140.7 1000 0 9 -- Chart
1955 9 29 00 15.3 139.9 1000 0 9 -- Chart
1955 9 29 06 15.9 139.7 998 0 9 -- Chart
1955 9 29 12 16.7 139.7 996 0 9 -- Chart
1955 9 29 18 17.5 139.7 994 0 9 -- Chart
1955 9 30 00 18.2 139.6 990 0 9 -- Chart
1955 9 30 06 18.9 139.5 990 0 9 -- Chart
1955 9 30 12 19.7 139.2 990 0 9 -- Chart
1955 9 30 18 20.7 138.5 990 0 9 -- Chart
1955 10 1 00 21.5 137.9 985 0 9 -- Chart
1955 10 1 06 22.1 137.1 975 0 9 -- Chart
1955 10 1 12 23.0 136.5 975 0 9 -- Chart
1955 10 1 18 24.3 135.9 975 0 9 -- Chart
1955 10 2 00 25.5 135.4 975 0 9 -- Chart
1955 10 2 06 26.8 134.9 975 0 9 -- Chart
1955 10 2 12 28.0 134.3 965 0 9 -- Chart
1955 10 2 18 28.7 133.8 965 0 9 -- Chart
1955 10 3 00 29.7 133.5 970 0 9 -- Chart
1955 10 3 06 30.7 133.0 970 0 9 -- Chart
1955 10 3 12 31.5 132.5 970 0 9 -- Chart
1955 10 3 18 33.1 132.1 985 0 9 -- Chart
1955 10 4 00 34.2 131.4 1000 0 9 -- Chart
1955 10 4 06 36.0 134.2 1006 0 6 -- Chart
1955 10 4 12 36.5 135.0 1008 0 6 -- Chart
1955 10 4 18 39.0 139.0 1006 0 6 -- Chart
1955 10 5 00 39.0 143.0 1006 0 6 -- Chart
Japan Meteorological Agency Best Track Data | Correction Date : 1989-06-01
< Typhoon 195522 1955 Season Typhoon 195524 >

Help